Time;durP1;ratioP1;P1;durP2;ratioP2;P2;SDS_P1;SDS_P2;PMS_P1;PMS_P2;Temp;Humidity;BMP_temperature;BMP_pressure;BME280_temperature;BME280_humidity;BME280_pressure;Samples;Min_cycle;Max_cycle;Signal;HPM_P1;HPM_P2
2022/01/21 00:01:24;;;;;;;9.90;1.55;;;4.10;99.90;;;;;;5053088;28;20036;-47
2022/01/21 00:03:50;;;;;;;8.25;1.88;;;4.00;99.90;;;;;;5053128;28;20025;-46
2022/01/21 00:06:15;;;;;;;10.48;1.70;;;3.90;99.90;;;;;;5035372;28;20035;-46
2022/01/21 00:08:43;;;;;;;10.02;1.73;;;3.90;99.90;;;;;;5035500;28;20084;-47
2022/01/21 00:11:10;;;;;;;4.20;1.73;;;3.80;99.90;;;;;;5053026;28;20017;-47
2022/01/21 00:13:36;;;;;;;4.55;1.13;;;3.70;99.90;;;;;;5035166;28;20017;-47
2022/01/21 00:16:05;;;;;;;15.57;2.72;;;3.70;99.90;;;;;;5053121;28;20056;-47
2022/01/21 00:18:31;;;;;;;12.73;2.13;;;3.60;99.90;;;;;;5035148;28;20120;-49
2022/01/21 00:31:54;;;;;;;9.82;1.27;;;3.40;99.90;;;;;;5057266;28;20032;-47
2022/01/21 00:34:20;;;;;;;5.47;1.40;;;3.50;99.90;;;;;;5056829;28;20029;-47
2022/01/21 00:36:46;;;;;;;5.38;1.67;;;3.60;99.90;;;;;;5056867;28;20024;-51
2022/01/21 00:39:12;;;;;;;8.30;1.80;;;3.70;99.90;;;;;;5039034;28;20029;-48
2022/01/21 00:41:47;;;;;;;5.20;1.70;;;3.60;99.90;;;;;;5038716;28;20032;-46
2022/01/21 00:44:13;;;;;;;9.55;1.65;;;3.70;99.90;;;;;;5056684;28;20025;-51
2022/01/21 00:46:38;;;;;;;9.13;1.92;;;3.70;99.90;;;;;;5056548;28;20025;-46
2022/01/21 00:49:04;;;;;;;8.93;2.50;;;3.80;99.90;;;;;;5038967;28;20056;-48
2022/01/21 00:51:30;;;;;;;19.38;2.67;;;3.80;99.90;;;;;;5057115;28;20017;-46
2022/01/21 00:53:56;;;;;;;5.70;1.55;;;3.70;99.90;;;;;;5056478;28;20022;-48
2022/01/21 00:56:21;;;;;;;9.18;1.67;;;3.60;99.90;;;;;;5038795;28;20082;-46
2022/01/21 00:58:47;;;;;;;10.80;2.20;;;3.50;99.90;;;;;;5038553;28;20021;-46
2022/01/21 01:01:13;;;;;;;8.05;1.63;;;3.40;99.90;;;;;;5038431;28;20025;-47
2022/01/21 01:03:38;;;;;;;6.00;1.58;;;3.30;99.90;;;;;;5038840;28;20036;-46
2022/01/21 01:06:04;;;;;;;6.90;2.10;;;3.30;99.90;;;;;;5038289;28;20098;-47
2022/01/21 01:08:30;;;;;;;8.00;1.48;;;3.30;99.90;;;;;;5056043;28;20025;-46
2022/01/21 01:21:54;;;;;;;8.27;1.73;;;3.10;99.90;;;;;;5056423;28;20032;-47
2022/01/21 01:29:47;;;;;;;12.93;1.50;;;3.00;99.90;;;;;;5055780;28;20036;-47
2022/01/21 01:32:13;;;;;;;9.27;2.17;;;3.00;99.90;;;;;;5037874;28;20013;-47
2022/01/21 01:34:39;;;;;;;11.50;2.10;;;3.00;99.90;;;;;;5038085;28;20104;-47
2022/01/21 01:37:11;;;;;;;10.65;1.55;;;3.00;99.90;;;;;;5055640;28;20045;-48
2022/01/21 01:39:43;;;;;;;18.35;1.73;;;2.90;99.90;;;;;;5037746;28;20043;-46
2022/01/21 01:50:06;;;;;;;5.53;1.50;;;2.90;99.90;;;;;;5055495;28;20428;-46
2022/01/21 01:52:33;;;;;;;5.53;1.90;;;2.80;99.90;;;;;;5037486;28;20036;-46
2022/01/21 01:54:59;;;;;;;10.15;1.73;;;2.80;99.90;;;;;;5037717;28;20025;-50
2022/01/21 01:57:24;;;;;;;13.07;1.98;;;2.80;99.90;;;;;;5055317;28;20017;-50
2022/01/21 01:59:50;;;;;;;11.20;1.63;;;2.80;99.90;;;;;;5037409;28;20025;-46
2022/01/21 02:02:18;;;;;;;7.70;1.95;;;2.80;99.90;;;;;;5055121;28;20439;-47
2022/01/21 02:04:46;;;;;;;6.82;2.00;;;2.70;99.90;;;;;;5055286;28;20025;-47
2022/01/21 02:07:13;;;;;;;7.07;2.03;;;2.70;99.90;;;;;;5055029;28;20149;-46
2022/01/21 02:09:39;;;;;;;9.82;1.85;;;2.80;99.90;;;;;;5055549;28;20036;-46
2022/01/21 02:12:06;;;;;;;11.93;2.08;;;2.80;99.90;;;;;;5054989;28;20029;-47
2022/01/21 02:14:36;;;;;;;4.75;1.70;;;2.90;99.90;;;;;;5037162;28;20028;-46
2022/01/21 02:22:54;;;;;;;4.80;1.58;;;3.10;99.90;;;;;;4994045;28;20114;-47
2022/01/21 02:25:20;;;;;;;10.93;2.05;;;3.10;99.90;;;;;;5029829;28;20033;-47
2022/01/21 02:27:48;;;;;;;8.40;1.52;;;3.20;99.90;;;;;;5037005;28;20021;-46
2022/01/21 02:30:19;;;;;;;8.77;1.48;;;3.20;99.90;;;;;;5036735;28;20025;-46
2022/01/21 02:32:49;;;;;;;9.90;1.92;;;3.20;99.90;;;;;;5036656;28;20032;-48
2022/01/21 02:35:16;;;;;;;3.97;2.08;;;3.20;99.90;;;;;;5037925;28;20025;-48
2022/01/21 02:37:42;;;;;;;5.55;2.03;;;3.30;99.90;;;;;;5054463;28;20028;-49
2022/01/21 02:40:09;;;;;;;8.43;1.33;;;3.40;99.90;;;;;;5036644;28;20116;-47
2022/01/21 02:42:35;;;;;;;6.20;1.67;;;3.30;99.90;;;;;;5054265;28;20033;-48
2022/01/21 02:45:03;;;;;;;6.50;1.58;;;3.30;99.90;;;;;;5054272;28;20028;-45
2022/01/21 02:47:28;;;;;;;5.35;1.90;;;3.30;99.90;;;;;;5054100;28;20043;-48
2022/01/21 02:49:54;;;;;;;5.97;1.73;;;3.30;99.90;;;;;;5036259;28;20029;-48
2022/01/21 02:52:24;;;;;;;12.95;2.03;;;3.30;99.90;;;;;;5054164;28;20047;-48
2022/01/21 02:54:49;;;;;;;10.50;1.80;;;3.40;99.90;;;;;;5036278;28;20021;-50
2022/01/21 02:57:15;;;;;;;13.30;2.25;;;3.30;99.90;;;;;;5054028;28;20075;-49
2022/01/21 02:59:40;;;;;;;9.48;2.55;;;3.30;99.90;;;;;;5036346;28;20036;-47
2022/01/21 03:02:06;;;;;;;8.35;1.42;;;3.30;99.90;;;;;;5036407;28;20021;-47
2022/01/21 03:05:16;;;;;;;10.65;2.15;;;3.40;99.90;;;;;;5054034;28;20044;-47
2022/01/21 03:07:21;;;;;;;10.75;1.85;;;3.40;99.90;;;;;;5048191;28;20037;-47
2022/01/21 03:09:46;;;;;;;7.47;1.70;;;3.40;99.90;;;;;;5036009;28;20371;-48
2022/01/21 03:12:12;;;;;;;9.23;2.08;;;3.40;99.90;;;;;;5036834;28;20025;-47
2022/01/21 03:14:38;;;;;;;13.45;2.00;;;3.40;99.90;;;;;;5053882;28;20021;-47
2022/01/21 03:17:03;;;;;;;10.57;1.73;;;3.40;99.90;;;;;;5035855;28;20397;-49
2022/01/21 03:19:29;;;;;;;6.55;1.45;;;3.40;99.90;;;;;;5036131;28;20077;-51
2022/01/21 03:21:55;;;;;;;12.98;1.85;;;3.40;99.90;;;;;;5053649;28;20029;-47
2022/01/21 03:24:20;;;;;;;12.95;2.08;;;3.50;99.90;;;;;;5035800;28;20032;-49
2022/01/21 03:26:46;;;;;;;12.48;2.33;;;3.50;99.90;;;;;;5036264;28;20036;-47
2022/01/21 03:29:11;;;;;;;4.70;1.98;;;3.60;99.90;;;;;;5035587;28;20035;-46
2022/01/21 03:31:37;;;;;;;12.43;1.98;;;3.70;99.90;;;;;;5035711;28;20021;-47
2022/01/21 03:34:04;;;;;;;5.00;1.98;;;3.70;99.90;;;;;;5053542;28;20539;-46
2022/01/21 03:36:30;;;;;;;7.30;2.00;;;3.70;99.90;;;;;;5035565;28;20017;-48
2022/01/21 03:38:57;;;;;;;5.07;1.75;;;3.70;99.90;;;;;;5053441;28;20021;-47
2022/01/21 03:41:23;;;;;;;8.45;1.83;;;3.60;99.90;;;;;;5053400;28;20119;-46
2022/01/21 03:43:49;;;;;;;8.10;1.60;;;3.70;99.90;;;;;;5053375;28;20504;-46
2022/01/21 03:46:16;;;;;;;10.13;2.20;;;3.90;99.90;;;;;;5053476;28;20040;-47
2022/01/21 03:48:46;;;;;;;7.80;2.42;;;3.90;99.90;;;;;;5035945;28;20028;-46
2022/01/21 03:51:11;;;;;;;11.50;1.38;;;3.90;99.90;;;;;;5053665;28;20104;-46
2022/01/21 03:53:37;;;;;;;16.80;2.17;;;3.80;99.90;;;;;;5053272;28;20057;-48
2022/01/21 03:56:03;;;;;;;6.63;1.77;;;3.70;99.90;;;;;;5035349;28;20535;-49
2022/01/21 03:58:28;;;;;;;11.32;2.72;;;3.80;99.90;;;;;;5053178;28;20025;-49
2022/01/21 04:00:55;;;;;;;10.60;1.65;;;3.70;99.90;;;;;;5053543;28;20070;-51
2022/01/21 04:03:23;;;;;;;11.15;1.67;;;3.70;99.90;;;;;;5052791;28;20029;-48
2022/01/21 04:05:49;;;;;;;2.92;1.50;;;3.60;99.90;;;;;;5035056;28;20115;-51
2022/01/21 04:08:15;;;;;;;7.05;1.80;;;3.60;99.90;;;;;;5035307;28;20171;-48
2022/01/21 04:10:48;;;;;;;12.13;2.33;;;3.70;99.90;;;;;;5035496;28;20017;-47
2022/01/21 04:13:16;;;;;;;7.80;1.50;;;3.70;99.90;;;;;;5035559;28;20104;-48
2022/01/21 04:15:44;;;;;;;4.68;1.73;;;3.60;99.90;;;;;;5052836;28;20075;-46
2022/01/21 04:18:11;;;;;;;8.48;2.50;;;3.70;99.90;;;;;;5035173;28;20036;-47
2022/01/21 04:20:36;;;;;;;15.10;2.70;;;3.60;99.90;;;;;;5053854;28;20080;-46
2022/01/21 04:23:03;;;;;;;15.32;2.55;;;3.60;99.90;;;;;;5053212;28;20056;-47
2022/01/21 04:25:29;;;;;;;9.05;2.20;;;3.50;99.90;;;;;;5052903;28;20032;-47
2022/01/21 04:27:54;;;;;;;18.23;2.30;;;3.50;99.90;;;;;;5035207;28;20112;-47
2022/01/21 04:30:20;;;;;;;8.57;1.77;;;3.40;99.90;;;;;;5035109;28;20053;-46
2022/01/21 04:32:45;;;;;;;7.30;2.10;;;3.40;99.90;;;;;;5035521;28;20029;-47
2022/01/21 04:35:11;;;;;;;14.77;2.53;;;3.30;99.90;;;;;;5035181;28;20056;-46
2022/01/21 04:37:43;;;;;;;3.60;1.95;;;3.40;99.90;;;;;;5035229;28;20025;-50
2022/01/21 04:40:13;;;;;;;16.15;2.42;;;3.30;99.90;;;;;;5052924;28;20092;-49
2022/01/21 04:48:09;;;;;;;10.82;2.20;;;3.30;99.90;;;;;;5053347;28;20460;-48
2022/01/21 04:50:41;;;;;;;6.50;2.42;;;3.40;99.90;;;;;;5034777;28;20053;-49
2022/01/21 04:53:07;;;;;;;10.88;2.55;;;3.40;99.90;;;;;;5052834;28;20056;-47
2022/01/21 04:55:35;;;;;;;13.00;3.97;;;3.50;99.90;;;;;;5052749;28;20056;-47
2022/01/21 04:58:01;;;;;;;10.23;3.45;;;3.40;99.90;;;;;;5052636;28;20017;-47
2022/01/21 05:00:27;;;;;;;8.32;2.30;;;3.40;99.90;;;;;;5052708;28;20096;-47
2022/01/21 05:02:53;;;;;;;13.63;2.67;;;3.50;99.90;;;;;;5052741;28;20045;-47
2022/01/21 05:05:18;;;;;;;7.68;2.33;;;3.80;99.90;;;;;;5052604;28;20060;-47
2022/01/21 05:07:44;;;;;;;9.93;2.25;;;3.70;99.90;;;;;;5034748;28;20057;-47
2022/01/21 05:10:10;;;;;;;14.30;4.10;;;3.70;99.90;;;;;;5034974;28;20033;-47
2022/01/21 05:12:36;;;;;;;10.52;4.15;;;3.70;99.90;;;;;;5034849;28;20071;-49
2022/01/21 05:15:15;;;;;;;6.35;2.55;;;3.60;99.90;;;;;;5036628;28;20651;-48
2022/01/21 05:17:45;;;;;;;8.88;2.40;;;3.50;99.90;;;;;;5038591;28;20032;-47
2022/01/21 05:20:12;;;;;;;13.75;3.53;;;3.60;99.90;;;;;;5038192;28;20029;-48
2022/01/21 05:22:38;;;;;;;14.38;5.95;;;3.50;99.90;;;;;;5056359;28;20029;-50
2022/01/21 05:25:04;;;;;;;10.65;4.50;;;3.50;99.90;;;;;;5056135;28;20025;-47
2022/01/21 05:27:30;;;;;;;10.27;4.28;;;3.40;99.90;;;;;;5038309;28;20029;-47
2022/01/21 05:29:55;;;;;;;15.40;3.55;;;3.30;99.90;;;;;;5055702;28;20388;-48
2022/01/21 05:32:21;;;;;;;15.98;3.25;;;3.40;99.90;;;;;;5038832;28;20024;-48
2022/01/21 05:34:46;;;;;;;8.63;2.53;;;3.50;99.90;;;;;;5055975;28;20021;-47
2022/01/21 05:37:12;;;;;;;11.18;3.20;;;3.50;99.90;;;;;;5038993;28;20112;-47
2022/01/21 05:39:38;;;;;;;5.25;2.80;;;3.60;99.90;;;;;;5038349;28;20025;-47
2022/01/21 05:42:06;;;;;;;20.40;2.85;;;3.60;99.90;;;;;;5055898;28;20107;-48
2022/01/21 05:46:59;;;;;;;8.23;2.65;;;3.70;99.90;;;;;;5055665;28;20442;-48
2022/01/21 05:49:28;;;;;;;11.18;2.38;;;3.70;99.90;;;;;;5037857;28;20035;-48
2022/01/21 05:52:02;;;;;;;11.02;3.33;;;3.80;99.90;;;;;;5055364;28;20048;-49
2022/01/21 05:54:27;;;;;;;10.55;3.65;;;3.70;99.90;;;;;;5055482;28;20021;-48
2022/01/21 05:56:53;;;;;;;8.70;3.03;;;3.80;99.90;;;;;;5037440;28;20051;-49
2022/01/21 05:59:19;;;;;;;13.13;4.13;;;3.80;99.90;;;;;;5055345;28;20021;-51
2022/01/21 06:01:45;;;;;;;18.55;6.85;;;3.80;99.90;;;;;;5055418;28;20052;-47
2022/01/21 06:04:11;;;;;;;16.17;6.88;;;3.80;99.90;;;;;;5037343;28;20485;-47
2022/01/21 06:06:37;;;;;;;9.55;2.95;;;3.60;99.90;;;;;;5055135;28;20047;-48
2022/01/21 06:09:07;;;;;;;8.90;3.08;;;3.60;99.90;;;;;;5037095;28;20025;-47
2022/01/21 06:11:33;;;;;;;11.68;3.15;;;3.60;99.90;;;;;;5037229;28;20494;-47
2022/01/21 06:14:00;;;;;;;9.55;3.33;;;3.60;99.90;;;;;;5054940;28;20024;-49
2022/01/21 06:16:26;;;;;;;15.32;3.90;;;3.60;99.90;;;;;;5054860;28;20035;-47
2022/01/21 06:18:51;;;;;;;17.75;5.07;;;3.50;99.90;;;;;;5055163;28;20025;-48
2022/01/21 06:21:17;;;;;;;13.73;5.10;;;3.50;99.90;;;;;;5055121;28;20025;-48
2022/01/21 06:23:42;;;;;;;10.80;4.82;;;3.40;99.90;;;;;;5054882;28;20083;-47
2022/01/21 06:26:09;;;;;;;20.00;5.53;;;3.30;99.90;;;;;;5036525;28;20025;-47
2022/01/21 06:28:34;;;;;;;11.95;4.72;;;3.30;99.90;;;;;;5036758;28;20025;-50
2022/01/21 06:31:00;;;;;;;15.95;4.88;;;3.30;99.90;;;;;;5036839;28;20017;-51
2022/01/21 06:33:26;;;;;;;15.25;6.05;;;3.20;99.90;;;;;;5054576;28;20021;-48
2022/01/21 06:35:52;;;;;;;16.42;6.38;;;3.20;99.90;;;;;;5054702;28;20056;-47
2022/01/21 06:38:20;;;;;;;15.02;5.57;;;3.20;99.90;;;;;;5036638;28;20029;-48
2022/01/21 06:40:53;;;;;;;26.20;6.47;;;3.20;99.90;;;;;;5036656;28;20048;-47
2022/01/21 06:43:18;;;;;;;18.50;5.68;;;3.30;99.90;;;;;;5037482;28;20036;-48
2022/01/21 06:45:44;;;;;;;31.33;7.32;;;3.30;99.90;;;;;;5036738;28;20029;-49
2022/01/21 06:48:10;;;;;;;45.17;12.27;;;3.30;99.90;;;;;;5036342;28;20116;-49
2022/01/21 06:50:42;;;;;;;36.67;11.13;;;3.30;99.90;;;;;;5036963;28;20024;-47
2022/01/21 06:53:07;;;;;;;;;;;3.30;99.90;;;;;;5037664;28;20082;-47
2022/01/21 06:55:33;;;;;;;19.45;6.95;;;3.30;99.90;;;;;;5036627;28;19909;-48
2022/01/21 06:57:59;;;;;;;24.00;8.18;;;3.40;99.90;;;;;;5054045;28;20018;-48
2022/01/21 07:00:25;;;;;;;18.02;6.88;;;3.40;99.90;;;;;;5054030;28;20082;-48
2022/01/21 07:02:52;;;;;;;33.88;11.98;;;3.40;99.90;;;;;;5036174;28;20020;-47
2022/01/21 07:05:19;;;;;;;28.20;10.95;;;3.40;99.90;;;;;;5036074;28;20025;-46
2022/01/21 07:07:45;;;;;;;34.08;11.93;;;3.40;99.90;;;;;;5036040;28;20032;-52
2022/01/21 07:10:13;;;;;;;37.15;15.82;;;3.40;99.90;;;;;;5053796;28;20035;-49
2022/01/21 07:12:40;;;;;;;46.08;15.95;;;3.40;99.90;;;;;;5036266;28;20017;-47
2022/01/21 07:15:07;;;;;;;33.53;11.77;;;3.50;99.90;;;;;;5053733;28;20025;-48
2022/01/21 07:17:34;;;;;;;43.05;14.52;;;3.50;99.90;;;;;;5035888;28;20040;-48
2022/01/21 07:19:59;;;;;;;47.25;16.50;;;3.60;99.90;;;;;;5035883;28;20025;-50
2022/01/21 07:22:25;;;;;;;45.78;16.85;;;3.60;99.90;;;;;;5035793;28;20028;-49
2022/01/21 07:24:51;;;;;;;45.42;13.57;;;3.60;99.90;;;;;;5053516;28;20429;-47
2022/01/21 07:27:16;;;;;;;45.15;15.00;;;3.50;99.90;;;;;;5036028;28;20083;-51
2022/01/21 07:29:42;;;;;;;46.60;15.25;;;3.60;99.90;;;;;;5035642;28;20082;-50
2022/01/21 07:32:09;;;;;;;36.50;12.38;;;3.60;99.90;;;;;;5035968;28;20111;-50
2022/01/21 07:34:35;;;;;;;22.23;8.05;;;3.70;99.90;;;;;;5053751;28;20036;-50
2022/01/21 07:37:02;;;;;;;30.05;11.32;;;3.70;99.90;;;;;;5035154;28;20018;-47
2022/01/21 07:39:28;;;;;;;53.28;15.50;;;3.80;99.90;;;;;;5054016;28;20030;-47
2022/01/21 07:41:54;;;;;;;34.88;12.85;;;3.80;99.90;;;;;;5035465;28;20025;-47
2022/01/21 07:44:19;;;;;;;50.58;18.65;;;3.90;99.90;;;;;;5036082;28;20021;-57
2022/01/21 07:46:46;;;;;;;40.25;13.00;;;3.90;99.90;;;;;;5035641;28;20477;-51
2022/01/21 07:49:12;;;;;;;55.90;17.83;;;3.90;99.90;;;;;;5053574;28;20036;-50
2022/01/21 07:51:38;;;;;;;51.55;16.83;;;3.90;99.90;;;;;;5053424;28;20017;-53
2022/01/21 07:54:05;;;;;;;46.13;14.18;;;3.90;99.90;;;;;;5035420;28;20032;-51
2022/01/21 07:56:33;;;;;;;38.25;12.07;;;3.90;99.90;;;;;;5053198;28;20473;-50
2022/01/21 07:59:00;;;;;;;40.92;12.93;;;4.00;99.90;;;;;;5035472;28;20499;-53
2022/01/21 08:01:26;;;;;;;41.15;16.45;;;4.00;99.90;;;;;;5053171;28;20025;-53
2022/01/21 08:03:52;;;;;;;49.00;14.90;;;4.00;99.90;;;;;;5036256;28;20025;-56
2022/01/21 08:06:17;;;;;;;42.80;13.50;;;4.00;99.90;;;;;;5035260;28;20556;-53
2022/01/21 08:08:43;;;;;;;37.15;13.32;;;4.10;99.90;;;;;;5035263;28;20037;-51
2022/01/21 08:11:09;;;;;;;34.08;12.05;;;4.30;99.90;;;;;;5035310;28;20044;-55
2022/01/21 08:13:34;;;;;;;30.98;12.68;;;4.30;99.90;;;;;;5053070;28;20044;-55
2022/01/21 08:16:00;;;;;;;67.90;26.98;;;4.40;99.90;;;;;;5052908;28;20500;-53
2022/01/21 08:18:26;;;;;;;42.28;16.73;;;4.40;99.90;;;;;;5036074;28;20028;-50
2022/01/21 08:20:52;;;;;;;22.90;9.77;;;4.30;99.90;;;;;;5035111;28;20021;-56
2022/01/21 08:23:18;;;;;;;28.23;9.52;;;4.40;99.90;;;;;;5035251;28;20051;-53
2022/01/21 08:25:44;;;;;;;25.17;8.75;;;4.40;99.90;;;;;;5035347;28;20072;-53
2022/01/21 08:28:10;;;;;;;23.55;8.18;;;4.40;99.90;;;;;;5052875;28;20029;-51
2022/01/21 08:30:36;;;;;;;19.52;8.05;;;4.40;99.90;;;;;;5052841;28;20020;-55
2022/01/21 08:33:03;;;;;;;23.42;8.68;;;4.40;99.90;;;;;;5035380;28;20021;-52
2022/01/21 08:35:29;;;;;;;25.23;8.82;;;4.40;99.90;;;;;;5034953;28;20055;-54
2022/01/21 08:37:55;;;;;;;25.17;7.90;;;4.40;99.90;;;;;;5034925;28;20072;-55
2022/01/21 08:40:22;;;;;;;21.73;8.10;;;4.50;99.90;;;;;;5034941;28;20040;-53
2022/01/21 08:42:48;;;;;;;23.08;8.85;;;4.60;99.90;;;;;;5035784;28;20026;-55
2022/01/21 08:45:14;;;;;;;23.83;8.52;;;4.60;99.90;;;;;;5034942;28;20021;-54
2022/01/21 08:47:41;;;;;;;23.30;7.45;;;4.60;99.90;;;;;;5052689;28;20412;-50
2022/01/21 08:50:09;;;;;;;20.95;8.05;;;4.70;99.90;;;;;;5038537;28;20021;-55
2022/01/21 08:52:40;;;;;;;23.02;8.07;;;4.80;99.90;;;;;;5038648;28;20489;-50
2022/01/21 08:55:11;;;;;;;25.37;9.17;;;4.90;99.90;;;;;;5056785;28;20108;-52
2022/01/21 08:57:39;;;;;;;27.23;10.50;;;5.00;99.90;;;;;;5056371;28;20025;-53
2022/01/21 09:00:11;;;;;;;35.10;10.50;;;5.10;99.90;;;;;;5056406;28;20024;-51
2022/01/21 09:02:38;;;;;;;26.95;9.60;;;5.20;99.90;;;;;;5056235;28;20020;-51
2022/01/21 09:05:04;;;;;;;20.52;8.27;;;5.30;99.90;;;;;;5056176;28;20029;-52
2022/01/21 09:07:30;;;;;;;23.60;7.47;;;5.30;99.90;;;;;;5038227;28;20039;-50
2022/01/21 09:09:56;;;;;;;18.10;6.80;;;5.40;99.90;;;;;;5056125;28;20079;-52
2022/01/21 09:12:21;;;;;;;17.20;7.72;;;5.50;99.90;;;;;;5038312;28;20017;-50
2022/01/21 09:14:47;;;;;;;21.88;7.75;;;5.60;99.90;;;;;;5038906;28;20083;-52
2022/01/21 09:17:13;;;;;;;24.20;7.65;;;5.70;99.90;;;;;;5038129;28;20037;-51
2022/01/21 09:19:39;;;;;;;20.65;7.60;;;5.70;99.90;;;;;;5056138;28;20074;-52
2022/01/21 09:22:05;;;;;;;21.05;7.80;;;5.70;99.90;;;;;;5038273;28;20029;-50
2022/01/21 09:24:33;;;;;;;25.13;8.68;;;5.90;99.90;;;;;;5037977;28;20107;-50
2022/01/21 09:27:00;;;;;;;18.13;6.78;;;6.20;99.90;;;;;;5038145;28;20031;-56
2022/01/21 09:29:25;;;;;;;24.13;8.68;;;6.30;99.90;;;;;;5038155;28;20056;-54
2022/01/21 09:31:53;;;;;;;23.92;8.32;;;6.40;99.90;;;;;;5037844;28;20025;-51
2022/01/21 09:34:19;;;;;;;16.83;7.07;;;6.50;99.90;;;;;;5055848;28;20028;-55
2022/01/21 09:36:45;;;;;;;17.08;7.53;;;6.20;99.90;;;;;;5056122;28;20074;-52
2022/01/21 09:39:12;;;;;;;19.73;7.88;;;6.10;99.90;;;;;;5055545;28;20108;-53
2022/01/21 09:41:42;;;;;;;20.38;8.55;;;6.10;99.90;;;;;;5055577;28;20083;-51
2022/01/21 09:44:12;;;;;;;24.52;8.50;;;6.00;99.90;;;;;;5055521;28;20043;-54
2022/01/21 09:46:42;;;;;;;21.45;7.65;;;6.00;99.90;;;;;;5038635;28;20063;-53
2022/01/21 09:49:26;;;;;;;17.52;7.00;;;6.10;99.90;;;;;;5037984;28;20024;-51
2022/01/21 09:52:13;;;;;;;18.63;8.13;;;6.40;99.90;;;;;;5055712;28;20024;-53
2022/01/21 09:54:47;;;;;;;16.48;7.32;;;6.50;99.90;;;;;;5055359;28;20491;-52
2022/01/21 09:57:18;;;;;;;18.23;7.25;;;6.50;99.90;;;;;;5037352;28;20025;-50
2022/01/21 09:59:45;;;;;;;14.95;6.97;;;6.60;99.90;;;;;;5036632;28;20021;-49
2022/01/21 10:02:11;;;;;;;17.23;6.43;;;6.80;99.90;;;;;;5037291;28;20036;-50
2022/01/21 10:05:00;;;;;;;15.77;7.65;;;7.00;99.90;;;;;;5038842;28;20071;-55
2022/01/21 10:07:26;;;;;;;21.70;8.82;;;7.10;99.90;;;;;;5037696;28;20032;-50
2022/01/21 10:09:53;;;;;;;13.90;5.97;;;7.30;99.90;;;;;;5037122;28;20059;-48
2022/01/21 10:12:19;;;;;;;17.38;7.50;;;7.30;99.90;;;;;;5054968;28;20432;-50
2022/01/21 10:14:45;;;;;;;15.90;6.68;;;7.40;99.90;;;;;;5037142;28;20078;-50
2022/01/21 10:17:13;;;;;;;18.77;6.32;;;7.60;99.90;;;;;;5054725;28;20032;-52
2022/01/21 10:19:39;;;;;;;17.50;6.47;;;8.00;99.90;;;;;;5055207;28;20028;-52
2022/01/21 10:22:13;;;;;;;11.27;5.47;;;8.40;99.90;;;;;;5054825;28;20026;-54
2022/01/21 10:25:13;;;;;;;17.55;7.05;;;8.50;99.90;;;;;;5037831;28;20032;-53
2022/01/21 10:27:39;;;;;;;17.00;6.47;;;8.50;99.90;;;;;;5025970;28;20167;-49
2022/01/21 10:30:23;;;;;;;14.70;6.40;;;8.60;99.90;;;;;;5036948;28;20025;-51
2022/01/21 10:32:49;;;;;;;15.35;6.40;;;8.50;99.90;;;;;;5037771;28;20021;-50
2022/01/21 10:35:36;;;;;;;13.68;6.60;;;8.40;99.90;;;;;;5054570;28;20029;-48
2022/01/21 10:38:16;;;;;;;20.50;9.50;;;8.40;99.90;;;;;;5036618;28;20043;-54
2022/01/21 10:40:42;;;;;;;27.70;11.15;;;8.50;99.90;;;;;;5036660;28;20021;-49
2022/01/21 10:43:16;;;;;;;17.40;7.88;;;8.40;99.90;;;;;;5054921;28;20032;-54
2022/01/21 10:45:57;;;;;;;11.32;5.70;;;8.30;99.90;;;;;;5036516;28;20478;-51
2022/01/21 10:48:24;;;;;;;8.75;4.68;;;8.30;99.90;;;;;;5054856;28;20013;-54
2022/01/21 10:51:16;;;;;;;11.77;4.80;;;8.20;99.90;;;;;;5036404;28;20024;-55
2022/01/21 10:53:44;;;;;;;17.85;5.50;;;8.30;99.90;;;;;;5037295;28;20025;-53
2022/01/21 10:56:17;;;;;;;10.88;5.25;;;8.40;99.90;;;;;;5054003;28;20025;-51
2022/01/21 10:58:46;;;;;;;16.70;7.00;;;8.30;99.90;;;;;;5036627;28;20119;-52
2022/01/21 11:01:17;;;;;;;14.50;6.05;;;8.30;99.90;;;;;;5036259;28;20033;-51
2022/01/21 11:03:59;;;;;;;14.30;6.43;;;8.20;99.90;;;;;;5054071;28;20032;-52
2022/01/21 11:06:27;;;;;;;17.73;7.90;;;8.20;99.90;;;;;;5053924;28;20017;-50
2022/01/21 11:09:21;;;;;;;19.83;8.07;;;8.20;99.90;;;;;;5053883;28;20032;-52
2022/01/21 11:11:50;;;;;;;18.40;7.00;;;8.10;99.90;;;;;;5035157;28;20021;-50
2022/01/21 11:14:19;;;;;;;17.63;5.78;;;8.10;99.90;;;;;;5036001;28;20036;-51
2022/01/21 11:16:46;;;;;;;11.25;5.55;;;7.90;99.90;;;;;;5035898;28;20036;-49
2022/01/21 11:19:15;;;;;;;9.98;4.47;;;7.90;99.90;;;;;;5053988;28;20025;-51
2022/01/21 11:21:54;;;;;;;8.20;4.30;;;7.80;99.90;;;;;;5035870;28;20035;-51
2022/01/21 11:24:22;;;;;;;8.95;3.95;;;8.00;99.90;;;;;;5053635;28;20151;-53
2022/01/21 11:27:16;;;;;;;8.52;3.78;;;8.20;99.90;;;;;;5053559;28;20606;-52
2022/01/21 11:29:44;;;;;;;11.45;4.47;;;8.30;99.90;;;;;;5053499;28;20028;-54
2022/01/21 11:32:10;;;;;;;11.60;4.40;;;8.40;99.90;;;;;;5054117;28;20377;-52
2022/01/21 11:34:36;;;;;;;12.25;4.57;;;8.50;99.90;;;;;;5053424;28;20017;-55
2022/01/21 11:37:04;;;;;;;8.50;4.03;;;8.50;99.90;;;;;;5035564;28;20522;-54
2022/01/21 11:39:31;;;;;;;9.55;3.38;;;8.40;99.90;;;;;;5053443;28;20100;-54
2022/01/21 11:41:59;;;;;;;10.82;4.47;;;8.40;99.90;;;;;;5053378;28;20025;-51
2022/01/21 11:44:27;;;;;;;8.07;3.83;;;8.40;99.90;;;;;;5053404;28;20020;-51
2022/01/21 11:47:01;;;;;;;10.52;3.33;;;8.50;99.90;;;;;;5035880;28;20025;-50
2022/01/21 11:49:29;;;;;;;7.80;3.22;;;8.40;99.90;;;;;;5035653;28;20088;-52
2022/01/21 11:52:18;;;;;;;6.95;2.95;;;8.50;99.90;;;;;;5036231;28;20017;-55
2022/01/21 11:54:45;;;;;;;6.57;3.75;;;8.30;99.90;;;;;;5053307;28;20049;-50
2022/01/21 11:57:12;;;;;;;6.95;2.33;;;8.30;99.90;;;;;;5053155;28;20017;-55
2022/01/21 12:00:04;;;;;;;5.47;2.70;;;8.30;99.90;;;;;;5053443;28;20021;-53
2022/01/21 12:02:33;;;;;;;4.38;1.83;;;8.30;99.90;;;;;;5053401;28;20032;-54
2022/01/21 12:05:07;;;;;;;10.55;2.92;;;8.30;99.90;;;;;;5035616;28;20021;-57
2022/01/21 12:07:44;;;;;;;6.18;2.85;;;8.10;99.90;;;;;;5035450;28;20029;-53
2022/01/21 12:10:18;;;;;;;6.20;2.70;;;8.00;99.90;;;;;;5035321;28;20048;-52
2022/01/21 12:15:36;;;;;;;4.10;2.28;;;7.90;99.90;;;;;;5053567;28;20065;-56
2022/01/21 12:18:53;;;;;;;5.70;1.75;;;8.00;99.90;;;;;;5054096;28;20033;-56
2022/01/21 12:21:26;;;;;;;4.60;1.83;;;8.10;99.90;;;;;;5053526;28;20025;-50
2022/01/21 12:23:52;;;;;;;4.82;2.45;;;8.10;99.90;;;;;;5054998;28;20059;-56
2022/01/21 12:26:20;;;;;;;6.82;2.65;;;8.10;99.90;;;;;;5039392;28;20036;-49
2022/01/21 12:29:07;;;;;;;9.43;2.85;;;8.30;99.90;;;;;;5039447;28;20028;-48
2022/01/21 12:31:49;;;;;;;5.57;2.70;;;8.40;99.90;;;;;;5057281;28;20051;-48
2022/01/21 12:34:16;;;;;;;8.70;2.47;;;8.40;99.90;;;;;;5038953;28;20029;-49
2022/01/21 12:36:57;;;;;;;8.55;2.53;;;8.40;99.90;;;;;;5039544;28;20060;-49
2022/01/21 12:39:48;;;;;;;6.78;2.40;;;8.50;99.90;;;;;;5038919;28;20021;-51
2022/01/21 12:42:20;;;;;;;4.35;1.90;;;8.70;99.90;;;;;;5039211;28;20029;-49
2022/01/21 12:44:50;;;;;;;8.32;2.08;;;8.60;99.90;;;;;;5038660;28;20028;-48
2022/01/21 12:47:30;;;;;;;7.10;2.50;;;8.70;99.90;;;;;;5038901;28;20060;-50
2022/01/21 12:49:58;;;;;;;5.10;1.95;;;8.70;99.90;;;;;;5038633;28;20025;-50
2022/01/21 12:52:45;;;;;;;10.70;3.00;;;8.60;99.90;;;;;;5056824;28;20189;-51
2022/01/21 12:58:17;;;;;;;7.15;2.70;;;8.60;99.90;;;;;;5056711;28;20028;-51
2022/01/21 13:00:44;;;;;;;5.85;2.28;;;8.60;99.90;;;;;;5056408;28;20440;-51
2022/01/21 13:03:22;;;;;;;3.90;2.40;;;8.60;99.90;;;;;;5038415;28;20489;-48
2022/01/21 13:06:08;;;;;;;5.38;2.35;;;8.50;99.90;;;;;;5038677;28;20397;-47
2022/01/21 13:08:37;;;;;;;6.35;2.42;;;8.60;99.90;;;;;;5039190;28;20033;-49
2022/01/21 13:11:24;;;;;;;5.65;2.30;;;8.70;99.90;;;;;;5038620;28;20021;-48
2022/01/21 13:14:24;;;;;;;4.80;2.50;;;8.70;99.90;;;;;;5057422;28;20021;-50
2022/01/21 13:16:55;;;;;;;3.45;2.65;;;8.50;99.90;;;;;;5056136;28;20082;-49
2022/01/21 13:19:21;;;;;;;4.22;2.40;;;8.50;99.90;;;;;;5038500;28;20059;-48
2022/01/21 13:21:47;;;;;;;4.90;2.30;;;8.50;99.90;;;;;;5055924;28;20052;-51
2022/01/21 13:24:27;;;;;;;5.88;2.08;;;8.50;99.90;;;;;;5039241;28;20025;-55
2022/01/21 13:26:54;;;;;;;4.25;2.55;;;8.50;99.90;;;;;;5038014;28;20021;-49
2022/01/21 13:29:32;;;;;;;10.75;2.95;;;8.50;99.90;;;;;;5038353;28;20095;-47
2022/01/21 13:32:00;;;;;;;7.50;3.15;;;8.40;99.90;;;;;;5037901;28;20021;-50
2022/01/21 13:34:29;;;;;;;7.43;2.50;;;8.30;99.90;;;;;;5055357;28;20024;-47
2022/01/21 13:37:00;;;;;;;6.85;3.35;;;8.30;99.90;;;;;;5055529;28;20021;-52
2022/01/21 13:39:28;;;;;;;8.85;2.85;;;8.30;99.90;;;;;;5037636;28;20029;-49
2022/01/21 13:42:14;;;;;;;8.18;3.00;;;8.20;99.90;;;;;;5037658;28;20400;-52
2022/01/21 13:44:54;;;;;;;6.68;3.33;;;8.20;99.90;;;;;;5037717;28;20029;-49
2022/01/21 13:47:39;;;;;;;8.93;3.63;;;8.10;99.90;;;;;;5038121;28;20032;-52
2022/01/21 13:50:24;;;;;;;9.00;3.40;;;8.20;99.90;;;;;;5055394;28;20047;-50
2022/01/21 13:52:53;;;;;;;8.68;3.60;;;8.00;99.90;;;;;;5055366;28;20033;-51
2022/01/21 13:55:28;;;;;;;10.02;3.47;;;8.00;99.90;;;;;;5055274;28;20021;-49